createdAt,value
2023-09-27T00:01:13.662Z,95340.22
2023-09-27T00:03:40.378Z,95344.41
2023-09-27T00:06:08.511Z,95342.59
2023-09-27T00:08:35.542Z,95339.91
2023-09-27T00:11:03.834Z,95336.44
2023-09-27T00:13:30.568Z,95333.22
2023-09-27T00:15:57.229Z,95333.72
2023-09-27T00:18:24.302Z,95327.06
2023-09-27T00:20:52.327Z,95325.97
2023-09-27T00:23:20.377Z,95326.53
2023-09-27T00:25:47.028Z,95331.34
2023-09-27T00:28:13.632Z,95331.75
2023-09-27T00:30:40.297Z,95332.13
2023-09-27T00:33:07.120Z,95324.34
2023-09-27T00:35:33.811Z,95321.81
2023-09-27T00:38:00.480Z,95322.84
2023-09-27T00:40:29.202Z,95329.78
2023-09-27T00:42:56.084Z,95324.50
2023-09-27T00:45:22.731Z,95322.97
2023-09-27T00:47:51.954Z,95328.25
2023-09-27T00:50:19.116Z,95330.22
2023-09-27T00:52:47.917Z,95323.59
2023-09-27T00:55:17.828Z,95334.22
2023-09-27T00:57:46.311Z,95322.69
2023-09-27T01:00:16.190Z,95322.97
2023-09-27T01:02:43.123Z,95323.50
2023-09-27T01:05:10.661Z,95321.63
2023-09-27T01:07:39.739Z,95321.50
2023-09-27T01:10:08.915Z,95317.13
2023-09-27T01:12:36.210Z,95327.00
2023-09-27T01:15:05.111Z,95322.81
2023-09-27T01:17:31.886Z,95320.31
2023-09-27T01:19:58.645Z,95319.22
2023-09-27T01:22:25.397Z,95321.63
2023-09-27T01:24:55.741Z,95318.69
2023-09-27T01:27:23.491Z,95313.88
2023-09-27T01:29:50.268Z,95317.66
2023-09-27T01:32:18.608Z,95314.97
2023-09-27T01:34:45.685Z,95313.81
2023-09-27T01:37:12.669Z,95311.97
2023-09-27T01:39:39.334Z,95314.94
2023-09-27T01:42:07.400Z,95315.66
2023-09-27T01:44:34.018Z,95309.25
2023-09-27T01:47:00.654Z,95303.88
2023-09-27T01:49:27.411Z,95309.50
2023-09-27T01:51:54.197Z,95302.75
2023-09-27T01:54:20.851Z,95295.91
2023-09-27T01:56:47.480Z,95297.41
2023-09-27T01:59:15.540Z,95294.75
2023-09-27T02:01:42.240Z,95292.69
2023-09-27T02:04:08.990Z,95283.53
2023-09-27T02:06:35.701Z,95283.09
2023-09-27T02:09:02.382Z,95293.03
2023-09-27T02:11:29.130Z,95287.81
2023-09-27T02:13:55.889Z,95284.28
2023-09-27T02:16:23.970Z,95283.19
2023-09-27T02:18:50.789Z,95280.16
2023-09-27T02:21:17.618Z,95278.59
2023-09-27T02:23:44.319Z,95280.16
2023-09-27T02:26:11.305Z,95282.03
2023-09-27T02:28:37.956Z,95286.81
2023-09-27T02:31:09.784Z,95284.13
2023-09-27T02:33:38.443Z,95281.47
2023-09-27T02:36:05.601Z,95283.59
2023-09-27T02:38:32.370Z,95282.03
2023-09-27T02:40:59.092Z,95285.78
2023-09-27T02:43:25.803Z,95284.94
2023-09-27T02:45:53.477Z,95292.34
2023-09-27T02:48:20.258Z,95281.72
2023-09-27T02:50:49.845Z,95284.06
2023-09-27T02:53:16.631Z,95277.59
2023-09-27T02:55:43.634Z,95281.78
2023-09-27T02:58:10.281Z,95281.72
2023-09-27T03:00:37.711Z,95282.50
2023-09-27T03:03:04.779Z,95276.94
2023-09-27T03:05:36.452Z,95280.25
2023-09-27T03:08:05.354Z,95284.31
2023-09-27T03:10:32.588Z,95282.16
2023-09-27T03:13:00.090Z,95284.31
2023-09-27T03:15:27.046Z,95282.13
2023-09-27T03:17:53.760Z,95277.69
2023-09-27T03:20:23.684Z,95278.44
2023-09-27T03:22:50.627Z,95278.44
2023-09-27T03:25:19.508Z,95277.13
2023-09-27T03:27:47.014Z,95280.34
2023-09-27T03:30:13.916Z,95274.22
2023-09-27T03:32:40.593Z,95273.63
2023-09-27T03:35:08.674Z,95276.31
2023-09-27T03:37:38.206Z,95295.53
2023-09-27T03:40:05.303Z,95291.44
2023-09-27T03:42:33.858Z,95289.22
2023-09-27T03:45:00.492Z,95296.00
2023-09-27T03:47:27.543Z,95296.50
2023-09-27T03:49:54.286Z,95295.00
2023-09-27T03:52:21.038Z,95312.69
2023-09-27T03:54:47.671Z,95317.03
2023-09-27T03:57:14.282Z,95326.38
2023-09-27T03:59:42.236Z,95325.84
2023-09-27T04:02:08.960Z,95338.84
2023-09-27T04:04:35.960Z,95340.03
2023-09-27T04:07:02.744Z,95338.31
2023-09-27T04:09:30.024Z,95337.25
2023-09-27T04:11:56.851Z,95342.88
2023-09-27T04:14:23.770Z,95350.88
2023-09-27T04:16:51.812Z,95348.97
2023-09-27T04:19:19.062Z,95343.31
2023-09-27T04:21:46.374Z,95356.22
2023-09-27T04:24:13.077Z,95353.44
2023-09-27T04:26:39.728Z,95361.09
2023-09-27T04:29:08.427Z,95357.94
2023-09-27T04:31:36.026Z,95363.28
2023-09-27T04:34:04.240Z,95364.34
2023-09-27T04:36:30.847Z,95360.28
2023-09-27T04:38:57.480Z,95362.53
2023-09-27T04:41:24.131Z,95364.16
2023-09-27T04:43:50.943Z,95359.63
2023-09-27T04:46:19.284Z,95372.41
2023-09-27T04:48:46.515Z,95372.22
2023-09-27T04:51:14.592Z,95375.88
2023-09-27T04:53:41.470Z,95373.47
2023-09-27T04:56:08.821Z,95376.44
2023-09-27T04:58:37.712Z,95384.22
2023-09-27T05:01:07.155Z,95389.38
2023-09-27T05:03:34.392Z,95395.19
2023-09-27T05:06:01.545Z,95392.84
2023-09-27T05:08:29.610Z,95398.91
2023-09-27T05:10:57.447Z,95392.03
2023-09-27T05:13:24.360Z,95397.75
2023-09-27T05:15:51.328Z,95390.41
2023-09-27T05:18:18.055Z,95394.63
2023-09-27T05:20:45.241Z,95396.25
2023-09-27T05:23:12.015Z,95387.19
2023-09-27T05:25:40.095Z,95380.88
2023-09-27T05:28:06.757Z,95391.22
2023-09-27T05:30:33.488Z,95381.22
2023-09-27T05:33:00.278Z,95380.88
2023-09-27T05:35:27.187Z,95390.97
2023-09-27T05:37:53.954Z,95389.94
2023-09-27T05:40:20.698Z,95400.09
2023-09-27T05:42:48.705Z,95403.00
2023-09-27T05:45:15.498Z,95406.72
2023-09-27T05:47:42.620Z,95403.75
2023-09-27T05:50:12.397Z,95407.31
2023-09-27T05:52:40.284Z,95409.88
2023-09-27T05:55:08.205Z,95412.59
2023-09-27T05:57:34.953Z,95411.91
2023-09-27T06:00:14.167Z,95418.59
2023-09-27T06:02:41.225Z,95412.59
2023-09-27T06:05:09.082Z,95417.31
2023-09-27T06:07:35.816Z,95410.06
2023-09-27T06:10:02.542Z,95414.34
2023-09-27T06:12:29.404Z,95414.25
2023-09-27T06:14:56.040Z,95414.50
2023-09-27T06:17:24.550Z,95418.13
2023-09-27T06:19:51.277Z,95415.13
2023-09-27T06:22:18.060Z,95419.59
2023-09-27T06:24:46.963Z,95411.84
2023-09-27T06:27:13.642Z,95416.69
2023-09-27T06:29:41.453Z,95420.06
2023-09-27T06:32:08.582Z,95419.00
2023-09-27T06:34:36.685Z,95410.91
2023-09-27T06:37:03.309Z,95415.75
2023-09-27T06:39:29.982Z,95420.78
2023-09-27T06:41:56.838Z,95418.84
2023-09-27T06:44:23.505Z,95418.69
2023-09-27T06:46:50.983Z,95411.84
2023-09-27T06:49:18.062Z,95419.00
2023-09-27T06:51:46.282Z,95413.13
2023-09-27T06:54:12.925Z,95407.06
2023-09-27T06:56:40.261Z,95412.16
2023-09-27T06:59:07.052Z,95416.44
2023-09-27T07:01:33.815Z,95421.03
2023-09-27T07:04:04.635Z,95419.41
2023-09-27T07:06:31.389Z,95418.47
2023-09-27T07:08:59.520Z,95409.72
2023-09-27T07:11:26.446Z,95412.16
2023-09-27T07:13:53.310Z,95405.03
2023-09-27T07:16:21.757Z,95401.38
2023-09-27T07:18:51.731Z,95405.03
2023-09-27T07:21:21.076Z,95400.53
2023-09-27T07:23:48.728Z,95404.81
2023-09-27T07:26:17.421Z,95408.13
2023-09-27T07:28:45.093Z,95408.03
2023-09-27T07:31:12.567Z,95408.53
2023-09-27T07:33:39.276Z,95399.91
2023-09-27T07:36:09.755Z,95396.22
2023-09-27T07:38:38.382Z,95394.84
2023-09-27T07:41:05.670Z,95391.50
2023-09-27T07:43:33.773Z,95394.09
2023-09-27T07:46:01.982Z,95396.66
2023-09-27T07:48:30.434Z,95399.22
2023-09-27T07:50:57.049Z,95400.81
2023-09-27T07:53:23.691Z,95399.75
2023-09-27T07:55:52.400Z,95404.06
2023-09-27T07:58:19.734Z,95412.44
2023-09-27T08:00:47.686Z,95404.94
2023-09-27T08:03:15.609Z,95397.94
2023-09-27T08:05:46.326Z,95401.75
2023-09-27T08:08:14.857Z,95387.53
2023-09-27T08:10:44.819Z,95376.56
2023-09-27T08:13:13.077Z,95377.09
2023-09-27T08:15:40.658Z,95373.41
2023-09-27T08:18:09.202Z,95373.63
2023-09-27T08:20:36.284Z,95379.44
2023-09-27T08:23:03.673Z,95388.31
2023-09-27T08:25:30.399Z,95388.91
2023-09-27T08:27:57.605Z,95389.63
2023-09-27T08:30:24.609Z,95392.91
2023-09-27T08:32:52.632Z,95390.47
2023-09-27T08:35:20.957Z,95390.81
2023-09-27T08:37:48.689Z,95387.75
2023-09-27T08:40:16.372Z,95391.25
2023-09-27T08:42:44.152Z,95394.25
2023-09-27T08:45:13.289Z,95379.16
2023-09-27T08:47:42.282Z,95401.09
2023-09-27T08:50:15.848Z,95400.78
2023-09-27T08:52:49.693Z,95406.22
2023-09-27T08:55:17.970Z,95398.59
2023-09-27T08:57:47.137Z,95396.59
2023-09-27T09:00:21.173Z,95390.75
2023-09-27T09:02:50.591Z,95382.50
2023-09-27T09:05:17.425Z,95387.13
2023-09-27T09:07:46.584Z,95376.06
2023-09-27T09:10:14.724Z,95377.38
2023-09-27T09:12:42.776Z,95371.06
2023-09-27T09:15:15.678Z,95378.28
2023-09-27T09:17:49.326Z,95376.44
2023-09-27T09:20:24.713Z,95379.75
2023-09-27T09:22:55.870Z,95377.81
2023-09-27T09:25:23.800Z,95360.72
2023-09-27T09:28:04.196Z,95365.44
2023-09-27T09:30:37.508Z,95368.97
2023-09-27T09:33:09.921Z,95369.13
2023-09-27T09:35:37.746Z,95362.84
2023-09-27T09:38:05.825Z,95357.28
2023-09-27T09:40:33.067Z,95357.81
2023-09-27T09:43:01.094Z,95368.31
2023-09-27T09:45:29.963Z,95365.38
2023-09-27T09:47:57.655Z,95373.59
2023-09-27T09:50:24.766Z,95361.78
2023-09-27T09:52:58.362Z,95352.44
2023-09-27T09:55:45.665Z,95359.47
2023-09-27T09:58:30.647Z,95349.19
2023-09-27T10:01:02.207Z,95354.91
2023-09-27T10:03:32.286Z,95354.25
2023-09-27T10:06:02.633Z,95343.88
2023-09-27T10:08:33.781Z,95346.09
2023-09-27T10:11:04.925Z,95336.78
2023-09-27T10:13:34.969Z,95333.59
2023-09-27T10:16:02.547Z,95336.31
2023-09-27T10:18:31.069Z,95330.94
2023-09-27T10:21:09.217Z,95323.69
2023-09-27T10:23:58.314Z,95317.91
2023-09-27T10:26:38.147Z,95317.59
2023-09-27T10:29:16.354Z,95310.34
2023-09-27T10:32:22.949Z,95299.81
2023-09-27T10:34:50.604Z,95312.03
2023-09-27T10:37:19.716Z,95307.53
2023-09-27T10:40:05.949Z,95299.44
2023-09-27T10:42:44.059Z,95300.84
2023-09-27T10:45:11.055Z,95289.34
2023-09-27T10:47:37.871Z,95296.56
2023-09-27T10:50:05.645Z,95291.47
2023-09-27T10:52:32.410Z,95277.19
2023-09-27T10:55:09.609Z,95276.00
2023-09-27T10:57:36.428Z,95275.66
2023-09-27T11:00:10.866Z,95270.88
2023-09-27T11:02:38.024Z,95260.31
2023-09-27T11:05:05.911Z,95252.56
2023-09-27T11:07:47.180Z,95252.81
2023-09-27T11:10:32.093Z,95252.25
2023-09-27T11:13:10.956Z,95242.81
2023-09-27T11:15:39.641Z,95245.41
2023-09-27T11:18:08.608Z,95244.97
2023-09-27T11:20:35.914Z,95234.84
2023-09-27T11:23:03.423Z,95222.88
2023-09-27T11:25:31.271Z,95224.19
2023-09-27T11:27:58.191Z,95220.97
2023-09-27T11:30:31.315Z,95214.63
2023-09-27T11:33:00.670Z,95211.38
2023-09-27T11:35:27.627Z,95216.34
2023-09-27T11:38:09.076Z,95208.63
2023-09-27T11:40:37.195Z,95203.13
2023-09-27T11:43:04.276Z,95195.47
2023-09-27T11:45:42.748Z,95193.00
2023-09-27T11:48:11.060Z,95193.84
2023-09-27T11:50:38.647Z,95191.28
2023-09-27T11:53:05.782Z,95181.25
2023-09-27T11:55:32.561Z,95178.09
2023-09-27T11:58:00.197Z,95168.28
2023-09-27T12:00:27.280Z,95166.41
2023-09-27T12:02:58.025Z,95164.19
2023-09-27T12:05:27.565Z,95165.88
2023-09-27T12:07:54.693Z,95150.41
2023-09-27T12:10:21.635Z,95154.81
2023-09-27T12:12:49.665Z,95145.25
2023-09-27T12:15:16.498Z,95144.06
2023-09-27T12:17:43.940Z,95147.28
2023-09-27T12:20:22.447Z,95142.59
2023-09-27T12:22:55.545Z,95129.06
2023-09-27T12:25:22.181Z,95120.09
2023-09-27T12:27:48.827Z,95115.91
2023-09-27T12:30:15.609Z,95108.97
2023-09-27T12:32:42.383Z,95105.78
2023-09-27T12:35:09.343Z,95096.31
2023-09-27T12:37:36.655Z,95086.13
2023-09-27T12:40:05.688Z,95079.13
2023-09-27T12:42:32.516Z,95075.25
2023-09-27T12:44:59.373Z,95067.91
2023-09-27T12:47:26.798Z,95063.63
2023-09-27T12:49:53.610Z,95060.94
2023-09-27T12:52:20.340Z,95055.28
2023-09-27T12:54:48.524Z,95053.78
2023-09-27T12:57:16.522Z,95045.63
2023-09-27T12:59:43.186Z,95039.38
2023-09-27T13:02:09.826Z,95034.88
2023-09-27T13:04:36.579Z,95039.97
2023-09-27T13:07:04.230Z,95024.75
2023-09-27T13:09:30.942Z,95026.31
2023-09-27T13:11:57.740Z,95021.09
2023-09-27T13:14:25.738Z,95028.56
2023-09-27T13:16:52.560Z,95027.94
2023-09-27T13:19:19.266Z,95018.69
2023-09-27T13:21:47.217Z,95016.41
2023-09-27T13:24:14.084Z,95007.75
2023-09-27T13:26:40.981Z,95008.28
2023-09-27T13:29:08.047Z,94997.81
2023-09-27T13:31:36.090Z,95000.03
2023-09-27T13:34:10.044Z,94998.59
2023-09-27T13:36:40.373Z,94999.41
2023-09-27T13:39:07.459Z,94991.44
2023-09-27T13:41:41.846Z,94982.25
2023-09-27T13:44:09.140Z,94989.84
2023-09-27T13:46:37.255Z,94973.91
2023-09-27T13:49:04.431Z,94980.69
2023-09-27T13:51:35.865Z,94978.94
2023-09-27T13:54:02.600Z,94970.47
2023-09-27T13:56:29.787Z,94968.66
2023-09-27T13:58:56.433Z,94961.97
2023-09-27T14:01:23.167Z,94961.97
2023-09-27T14:03:51.217Z,94964.13
2023-09-27T14:06:18.082Z,94952.72
2023-09-27T14:08:44.848Z,94953.56
2023-09-27T14:11:13.202Z,94950.69
2023-09-27T14:13:40.007Z,94955.50
2023-09-27T14:16:08.453Z,94951.00
2023-09-27T14:18:35.259Z,94943.53
2023-09-27T14:21:04.324Z,94943.69
2023-09-27T14:23:31.043Z,94943.69
2023-09-27T14:25:57.721Z,94949.09
2023-09-27T14:28:25.380Z,94944.09
2023-09-27T14:30:52.068Z,94935.47
2023-09-27T14:33:19.216Z,94940.63
2023-09-27T14:38:18.213Z,94941.50
2023-09-27T14:40:44.801Z,94934.25
2023-09-27T14:43:11.484Z,94932.13
2023-09-27T14:45:38.561Z,94929.44
2023-09-27T14:48:05.841Z,94930.34
2023-09-27T14:50:32.675Z,94920.34
2023-09-27T14:52:59.720Z,94913.78
2023-09-27T14:55:28.108Z,94914.97
2023-09-27T14:57:54.898Z,94907.44
2023-09-27T15:00:23.715Z,94912.91
2023-09-27T15:02:50.757Z,94904.97
2023-09-27T15:05:17.544Z,94903.47
2023-09-27T15:07:44.278Z,94899.19
2023-09-27T15:10:11.255Z,94898.09
2023-09-27T15:12:39.497Z,94897.00
2023-09-27T15:15:07.148Z,94894.09
2023-09-27T15:17:38.783Z,94895.91
2023-09-27T15:20:06.865Z,94893.28
2023-09-27T15:22:34.019Z,94894.88
2023-09-27T15:25:00.762Z,94898.59
2023-09-27T15:27:27.423Z,94899.19
2023-09-27T15:29:55.529Z,94899.19
2023-09-27T15:32:22.257Z,94899.75
2023-09-27T15:34:49.033Z,94900.78
2023-09-27T15:37:16.212Z,94901.78
2023-09-27T15:39:43.060Z,94900.69
2023-09-27T15:42:10.570Z,94895.09
2023-09-27T15:44:41.396Z,94903.47
2023-09-27T15:47:12.518Z,94903.69
2023-09-27T15:49:39.182Z,94903.38
2023-09-27T15:52:05.866Z,94902.28
2023-09-27T15:54:32.469Z,94903.91
2023-09-27T15:56:59.128Z,94902.00
2023-09-27T15:59:25.796Z,94904.63
2023-09-27T16:01:53.055Z,94897.41
2023-09-27T16:04:21.563Z,94904.19
2023-09-27T16:06:48.207Z,94905.28
2023-09-27T16:09:16.525Z,94905.28
2023-09-27T16:11:44.201Z,94912.53
2023-09-27T16:14:11.343Z,94909.28
2023-09-27T16:16:38.089Z,94909.56
2023-09-27T16:19:05.073Z,94910.16
2023-09-27T16:21:33.136Z,94912.03
2023-09-27T16:24:01.496Z,94915.25
2023-09-27T16:26:28.491Z,94909.06
2023-09-27T16:28:55.205Z,94911.25
2023-09-27T16:31:22.603Z,94915.03
2023-09-27T16:33:49.533Z,94920.41
2023-09-27T16:36:17.784Z,94922.81
2023-09-27T16:38:45.818Z,94925.78
2023-09-27T16:41:12.473Z,94921.50
2023-09-27T16:43:40.979Z,94924.19
2023-09-27T16:46:10.473Z,94928.75
2023-09-27T16:48:37.594Z,94928.47
2023-09-27T16:51:04.206Z,94925.78
2023-09-27T16:53:30.831Z,94923.38
2023-09-27T16:55:58.831Z,94926.06
2023-09-27T16:58:28.290Z,94926.38
2023-09-27T17:00:56.615Z,94925.28
2023-09-27T17:03:23.388Z,94925.56
2023-09-27T17:05:50.192Z,94922.59
2023-09-27T17:08:19.739Z,94928.53
2023-09-27T17:10:46.924Z,94938.22
2023-09-27T17:13:14.960Z,94941.19
2023-09-27T17:15:42.741Z,94947.66
2023-09-27T17:18:09.387Z,94950.88
2023-09-27T17:20:36.041Z,94954.63
2023-09-27T17:23:04.244Z,94954.94
2023-09-27T17:25:30.971Z,94954.13
2023-09-27T17:27:57.640Z,94962.19
2023-09-27T17:30:25.752Z,94960.59
2023-09-27T17:32:52.430Z,94967.06
2023-09-27T17:35:19.207Z,94967.06
2023-09-27T17:37:46.038Z,94969.75
2023-09-27T17:40:13.217Z,94971.94
2023-09-27T17:42:39.924Z,94971.13
2023-09-27T17:45:09.223Z,94972.22
2023-09-27T17:47:37.380Z,94977.91
2023-09-27T17:50:04.949Z,94981.38
2023-09-27T17:52:31.746Z,94986.47
2023-09-27T17:54:58.477Z,94991.34
2023-09-27T17:57:25.098Z,94993.22
2023-09-27T17:59:51.714Z,94996.44
2023-09-27T18:02:18.542Z,95008.84
2023-09-27T18:04:46.905Z,95007.25
2023-09-27T18:07:13.775Z,95011.03
2023-09-27T18:09:40.513Z,95004.84
2023-09-27T18:12:07.661Z,95012.38
2023-09-27T18:14:34.279Z,95017.75
2023-09-27T18:17:01.046Z,95015.59
2023-09-27T18:19:27.808Z,95005.91
2023-09-27T18:21:55.819Z,95016.66
2023-09-27T18:24:22.726Z,95012.94
2023-09-27T18:26:49.389Z,95013.53
2023-09-27T18:29:16.153Z,95013.53
2023-09-27T18:31:45.596Z,95015.41
2023-09-27T18:34:12.943Z,95020.28
2023-09-27T18:36:39.632Z,95020.28
2023-09-27T18:39:07.649Z,95025.44
2023-09-27T18:41:34.281Z,95025.44
2023-09-27T18:44:01.078Z,95018.97
2023-09-27T18:46:27.838Z,95025.38
2023-09-27T18:48:54.718Z,95019.47
2023-09-27T18:51:22.268Z,95014.97
2023-09-27T18:53:49.488Z,95015.47
2023-09-27T18:56:18.518Z,95014.16
2023-09-27T18:58:45.325Z,95009.59
2023-09-27T19:01:12.530Z,95015.78
2023-09-27T19:03:39.274Z,95017.66
2023-09-27T19:06:06.240Z,95022.16
2023-09-27T19:08:32.958Z,95023.19
2023-09-27T19:10:59.672Z,95026.44
2023-09-27T19:13:27.826Z,95025.06
2023-09-27T19:15:57.006Z,95025.00
2023-09-27T19:18:23.677Z,95024.97
2023-09-27T19:20:50.448Z,95031.69
2023-09-27T19:23:17.070Z,95022.31
2023-09-27T19:25:43.725Z,95023.13
2023-09-27T19:28:10.484Z,95024.50
2023-09-27T19:30:40.701Z,95030.16
2023-09-27T19:33:08.575Z,95028.31
2023-09-27T19:35:35.343Z,95036.38
2023-09-27T19:38:02.019Z,95038.56
2023-09-27T19:40:28.651Z,95039.31
2023-09-27T19:42:55.312Z,95037.19
2023-09-27T19:45:22.464Z,95043.69
2023-09-27T19:47:50.501Z,95048.28
2023-09-27T19:50:17.377Z,95042.38
2023-09-27T19:52:45.603Z,95046.91
2023-09-27T19:55:12.951Z,95043.94
2023-09-27T19:57:39.584Z,95038.66
2023-09-27T20:00:09.228Z,95044.03
2023-09-27T20:02:35.962Z,95041.81
2023-09-27T20:05:04.395Z,95045.38
2023-09-27T20:07:31.470Z,95058.00
2023-09-27T20:09:58.111Z,95062.34
2023-09-27T20:12:24.839Z,95056.69
2023-09-27T20:14:51.563Z,95060.41
2023-09-27T20:17:18.517Z,95068.50
2023-09-27T20:19:45.175Z,95065.34
2023-09-27T20:22:13.336Z,95075.03
2023-09-27T20:24:40.318Z,95073.13
2023-09-27T20:27:06.948Z,95072.28
2023-09-27T20:29:33.691Z,95071.75
2023-09-27T20:32:00.513Z,95074.16
2023-09-27T20:34:27.242Z,95074.78
2023-09-27T20:36:53.874Z,95074.31
2023-09-27T20:39:21.911Z,95076.94
2023-09-27T20:41:48.557Z,95085.53
2023-09-27T20:44:15.320Z,95085.28
2023-09-27T20:46:42.104Z,95083.22
2023-09-27T20:49:08.789Z,95086.44
2023-09-27T20:51:35.398Z,95083.22
2023-09-27T20:54:02.352Z,95080.34
2023-09-27T20:56:30.552Z,95075.78
2023-09-27T20:58:57.210Z,95071.44
2023-09-27T21:01:28.975Z,95079.50
2023-09-27T21:03:55.973Z,95087.31
2023-09-27T21:06:28.658Z,95086.72
2023-09-27T21:08:56.667Z,95080.25
2023-09-27T21:11:24.730Z,95084.16
2023-09-27T21:13:58.303Z,95083.59
2023-09-27T21:16:26.287Z,95074.41
2023-09-27T21:18:54.303Z,95078.03
2023-09-27T21:21:21.766Z,95071.84
2023-09-27T21:23:48.434Z,95078.28
2023-09-27T21:26:15.159Z,95067.78
2023-09-27T21:28:41.986Z,95074.53
2023-09-27T21:31:11.701Z,95062.47
2023-09-27T21:33:38.518Z,95066.75
2023-09-27T21:36:05.620Z,95069.19
2023-09-27T21:38:32.279Z,95075.13
2023-09-27T21:40:59.105Z,95059.84
2023-09-27T21:43:25.907Z,95069.00
2023-09-27T21:45:53.017Z,95062.03
2023-09-27T21:48:25.082Z,95066.03
2023-09-27T21:50:52.137Z,95064.66
2023-09-27T21:53:18.790Z,95069.00
2023-09-27T21:55:45.426Z,95062.59
2023-09-27T21:58:12.078Z,95058.63
2023-09-27T22:00:38.782Z,95064.09
2023-09-27T22:03:05.903Z,95067.44
2023-09-27T22:05:34.422Z,95053.59
2023-09-27T22:08:01.570Z,95062.38
2023-09-27T22:10:35.349Z,95061.34
2023-09-27T22:13:22.322Z,95061.84
2023-09-27T22:15:54.316Z,95062.81
2023-09-27T22:18:21.960Z,95054.47
2023-09-27T22:20:50.523Z,95051.75
2023-09-27T22:23:32.363Z,95058.19
2023-09-27T22:26:00.325Z,95051.22
2023-09-27T22:28:30.026Z,95049.66
2023-09-27T22:30:56.880Z,95047.81
2023-09-27T22:33:30.532Z,95045.44
2023-09-27T22:35:58.674Z,95043.25
2023-09-27T22:38:25.299Z,95038.09
2023-09-27T22:40:52.291Z,95045.63
2023-09-27T22:43:19.102Z,95044.00
2023-09-27T22:45:49.177Z,95037.81
2023-09-27T22:48:16.983Z,95040.47
2023-09-27T22:50:49.499Z,95039.31
2023-09-27T22:53:19.138Z,95035.53
2023-09-27T22:56:00.084Z,95036.28
2023-09-27T22:58:28.740Z,95030.63
2023-09-27T23:00:58.528Z,95032.28
2023-09-27T23:03:27.865Z,95031.72
2023-09-27T23:05:57.110Z,95040.06
2023-09-27T23:08:28.451Z,95041.16
2023-09-27T23:10:56.339Z,95035.50
2023-09-27T23:13:29.299Z,95042.84
2023-09-27T23:15:56.365Z,95037.75
2023-09-27T23:18:30.962Z,95044.53
2023-09-27T23:20:58.949Z,95032.16
2023-09-27T23:23:27.117Z,95044.00
2023-09-27T23:25:55.274Z,95038.00
2023-09-27T23:28:31.152Z,95036.38
2023-09-27T23:31:09.115Z,95038.25
2023-09-27T23:33:42.679Z,95049.94
2023-09-27T23:36:23.833Z,95047.16
2023-09-27T23:38:58.277Z,95046.22
2023-09-27T23:41:32.042Z,95051.75
2023-09-27T23:44:05.917Z,95050.09
2023-09-27T23:46:38.335Z,95045.00
2023-09-27T23:49:05.578Z,95053.00
2023-09-27T23:51:33.192Z,95055.69
2023-09-27T23:54:03.682Z,95066.97
2023-09-27T23:56:35.690Z,95055.53
2023-09-27T23:59:21.052Z,95065.16
